createdAt,value
2023-03-29T00:00:05.959Z,156.99
2023-03-29T00:01:06.067Z,155.84
2023-03-29T00:02:06.104Z,157.21
2023-03-29T00:03:06.339Z,157.61
2023-03-29T00:04:06.464Z,155.17
2023-03-29T00:05:05.276Z,158.20
2023-03-29T00:06:05.349Z,155.01
2023-03-29T00:07:06.425Z,156.73
2023-03-29T00:08:06.482Z,156.95
2023-03-29T00:09:06.554Z,155.46
2023-03-29T00:10:05.592Z,157.07
2023-03-29T00:11:06.673Z,155.76
2023-03-29T00:12:05.705Z,159.16
2023-03-29T00:13:06.781Z,155.41
2023-03-29T00:14:06.843Z,156.70
2023-03-29T00:15:06.918Z,155.22
2023-03-29T00:16:06.965Z,154.71
2023-03-29T00:17:07.146Z,155.98
2023-03-29T00:18:07.259Z,158.85
2023-03-29T00:19:07.158Z,156.59
2023-03-29T00:20:07.218Z,157.23
2023-03-29T00:21:07.292Z,157.55
2023-03-29T00:22:07.356Z,157.71
2023-03-29T00:23:06.406Z,154.94
2023-03-29T00:24:07.464Z,157.59
2023-03-29T00:25:07.549Z,156.96
2023-03-29T00:26:08.315Z,155.85
2023-03-29T00:27:07.634Z,157.07
2023-03-29T00:28:06.699Z,155.01
2023-03-29T00:29:07.761Z,156.92
2023-03-29T00:30:07.841Z,154.66
2023-03-29T00:31:07.952Z,156.64
2023-03-29T00:32:07.960Z,156.87
2023-03-29T00:33:08.113Z,157.18
2023-03-29T00:34:08.070Z,156.00
2023-03-29T00:35:08.137Z,155.49
2023-03-29T00:36:08.255Z,156.42
2023-03-29T00:37:08.275Z,156.28
2023-03-29T00:38:08.336Z,154.91
2023-03-29T00:39:08.416Z,156.21
2023-03-29T00:40:08.450Z,156.89
2023-03-29T00:41:07.508Z,154.33
2023-03-29T00:42:08.590Z,155.60
2023-03-29T00:43:08.633Z,157.12
2023-03-29T00:44:07.688Z,154.11
2023-03-29T00:45:07.760Z,157.14
2023-03-29T00:46:08.806Z,156.94
2023-03-29T00:47:08.854Z,154.74
2023-03-29T00:48:08.543Z,154.53
2023-03-29T00:49:08.978Z,154.62
2023-03-29T00:50:09.012Z,155.97
2023-03-29T00:51:09.969Z,155.85
2023-03-29T00:52:09.089Z,155.72
2023-03-29T00:53:09.150Z,155.09
2023-03-29T00:54:09.121Z,155.68
2023-03-29T00:55:09.134Z,154.17
2023-03-29T00:56:08.131Z,150.99
2023-03-29T00:57:08.154Z,156.64
2023-03-29T00:58:09.166Z,154.42
2023-03-29T00:59:09.144Z,155.75
2023-03-29T01:00:09.166Z,155.79
2023-03-29T01:01:09.162Z,155.00
2023-03-29T01:02:08.240Z,156.98
2023-03-29T01:03:09.257Z,156.02
2023-03-29T01:04:08.292Z,155.74
2023-03-29T01:05:09.228Z,156.96
2023-03-29T01:06:09.218Z,156.92
2023-03-29T01:07:08.372Z,154.99
2023-03-29T01:08:09.290Z,155.83
2023-03-29T01:09:08.291Z,154.91
2023-03-29T01:10:09.311Z,154.31
2023-03-29T01:11:08.334Z,154.29
2023-03-29T01:12:09.331Z,156.04
2023-03-29T01:13:09.364Z,154.79
2023-03-29T01:14:08.397Z,155.74
2023-03-29T01:15:09.415Z,154.86
2023-03-29T01:16:09.489Z,154.91
2023-03-29T01:17:09.473Z,155.23
2023-03-29T01:18:08.634Z,155.52
2023-03-29T01:19:09.596Z,156.75
2023-03-29T01:20:09.647Z,156.71
2023-03-29T01:21:09.727Z,154.01
2023-03-29T01:22:09.709Z,154.49
2023-03-29T01:23:09.720Z,153.53
2023-03-29T01:24:09.781Z,154.98
2023-03-29T01:25:08.759Z,156.05
2023-03-29T01:26:09.768Z,154.16
2023-03-29T01:27:09.766Z,155.39
2023-03-29T01:28:09.778Z,156.29
2023-03-29T01:29:09.785Z,154.63
2023-03-29T01:30:08.818Z,155.07
2023-03-29T01:31:09.789Z,153.97
2023-03-29T01:32:09.928Z,153.96
2023-03-29T01:33:09.804Z,153.26
2023-03-29T01:34:08.790Z,155.45
2023-03-29T01:35:09.815Z,154.36
2023-03-29T01:36:08.887Z,153.46
2023-03-29T01:37:09.860Z,155.13
2023-03-29T01:38:09.843Z,152.69
2023-03-29T01:39:09.871Z,154.83
2023-03-29T01:40:09.876Z,154.15
2023-03-29T01:41:09.903Z,153.99
2023-03-29T01:42:08.897Z,151.83
2023-03-29T01:43:09.918Z,154.17
2023-03-29T01:44:09.893Z,153.84
2023-03-29T01:45:09.904Z,155.54
2023-03-29T01:46:09.942Z,156.07
2023-03-29T01:47:09.971Z,153.08
2023-03-29T01:48:09.937Z,153.68
2023-03-29T01:49:09.927Z,152.40
2023-03-29T01:50:09.938Z,152.82
2023-03-29T01:51:08.965Z,154.58
2023-03-29T01:52:09.985Z,153.79
2023-03-29T01:53:10.047Z,153.42
2023-03-29T01:54:10.026Z,153.39
2023-03-29T01:55:09.041Z,153.40
2023-03-29T01:56:10.041Z,154.11
2023-03-29T01:57:10.103Z,152.66
2023-03-29T01:58:10.145Z,152.46
2023-03-29T01:59:10.203Z,154.07
2023-03-29T02:00:10.263Z,154.06
2023-03-29T02:01:09.330Z,154.47
2023-03-29T02:02:10.426Z,152.90
2023-03-29T02:03:10.630Z,152.87
2023-03-29T02:04:10.517Z,155.00
2023-03-29T02:05:10.545Z,155.37
2023-03-29T02:06:09.595Z,155.04
2023-03-29T02:07:10.674Z,153.43
2023-03-29T02:08:10.713Z,152.45
2023-03-29T02:09:10.859Z,152.45
2023-03-29T02:10:10.847Z,153.70
2023-03-29T02:11:10.914Z,153.80
2023-03-29T02:12:10.971Z,155.86
2023-03-29T02:13:11.026Z,153.72
2023-03-29T02:14:10.090Z,155.61
2023-03-29T02:15:11.213Z,154.22
2023-03-29T02:16:10.262Z,154.92
2023-03-29T02:17:11.269Z,154.79
2023-03-29T02:18:11.319Z,154.66
2023-03-29T02:19:10.353Z,154.68
2023-03-29T02:20:11.392Z,152.50
2023-03-29T02:21:11.437Z,153.38
2023-03-29T02:22:11.464Z,154.09
2023-03-29T02:23:11.522Z,154.49
2023-03-29T02:24:11.555Z,153.47
2023-03-29T02:25:11.603Z,153.80
2023-03-29T02:26:10.594Z,153.56
2023-03-29T02:27:10.637Z,154.97
2023-03-29T02:28:10.675Z,155.20
2023-03-29T02:29:11.698Z,154.46
2023-03-29T02:30:11.732Z,154.61
2023-03-29T02:31:11.773Z,152.98
2023-03-29T02:32:11.772Z,155.08
2023-03-29T02:33:11.804Z,153.25
2023-03-29T02:34:11.823Z,153.96
2023-03-29T02:35:11.849Z,154.31
2023-03-29T02:36:11.886Z,154.27
2023-03-29T02:37:11.895Z,153.98
2023-03-29T02:38:11.885Z,155.71
2023-03-29T02:39:10.905Z,152.75
2023-03-29T02:40:11.951Z,154.05
2023-03-29T02:41:11.972Z,154.97
2023-03-29T02:42:11.968Z,154.55
2023-03-29T02:43:11.981Z,151.62
2023-03-29T02:44:10.966Z,154.14
2023-03-29T02:45:12.006Z,153.55
2023-03-29T02:46:12.024Z,154.27
2023-03-29T02:47:11.997Z,153.69
2023-03-29T02:48:11.998Z,153.44
2023-03-29T02:49:11.990Z,156.58
2023-03-29T02:50:12.005Z,154.48
2023-03-29T02:51:12.000Z,154.48
2023-03-29T02:52:12.024Z,154.33
2023-03-29T02:53:12.039Z,153.80
2023-03-29T02:54:12.018Z,154.84
2023-03-29T02:55:12.024Z,154.42
2023-03-29T02:56:12.049Z,153.32
2023-03-29T02:57:12.095Z,154.82
2023-03-29T02:58:11.055Z,152.43
2023-03-29T02:59:12.036Z,153.99
2023-03-29T03:00:11.044Z,154.95
2023-03-29T03:01:12.044Z,153.81
2023-03-29T03:02:12.106Z,153.55
2023-03-29T03:03:11.111Z,152.62
2023-03-29T03:04:12.110Z,152.98
2023-03-29T03:05:11.047Z,152.93
2023-03-29T03:06:11.062Z,154.88
2023-03-29T03:07:12.042Z,152.11
2023-03-29T03:08:12.033Z,153.71
2023-03-29T03:09:12.036Z,152.87
2023-03-29T03:10:12.053Z,150.23
2023-03-29T03:11:12.037Z,150.30
2023-03-29T03:12:12.048Z,152.70
2023-03-29T03:13:11.053Z,151.62
2023-03-29T03:14:12.034Z,152.24
2023-03-29T03:15:12.018Z,150.97
2023-03-29T03:16:12.072Z,153.21
2023-03-29T03:17:12.048Z,150.34
2023-03-29T03:18:12.021Z,151.40
2023-03-29T03:19:12.016Z,151.52
2023-03-29T03:20:12.015Z,151.53
2023-03-29T03:21:12.003Z,149.71
2023-03-29T03:22:12.120Z,152.82
2023-03-29T03:23:11.992Z,149.98
2023-03-29T03:24:12.009Z,149.95
2023-03-29T03:25:12.021Z,150.54
2023-03-29T03:26:12.004Z,151.00
2023-03-29T03:27:11.999Z,149.49
2023-03-29T03:28:12.009Z,151.60
2023-03-29T03:29:12.034Z,150.71
2023-03-29T03:30:12.060Z,152.62
2023-03-29T03:31:12.057Z,149.87
2023-03-29T03:32:12.033Z,150.48
2023-03-29T03:33:12.045Z,151.84
2023-03-29T03:34:12.074Z,149.38
2023-03-29T03:35:11.089Z,151.18
2023-03-29T03:36:12.199Z,149.87
2023-03-29T03:37:12.089Z,149.80
2023-03-29T03:38:11.061Z,148.92
2023-03-29T03:39:12.075Z,151.63
2023-03-29T03:40:12.216Z,151.21
2023-03-29T03:41:12.085Z,150.07
2023-03-29T03:42:11.086Z,148.26
2023-03-29T03:43:12.075Z,152.96
2023-03-29T03:44:12.091Z,149.72
2023-03-29T03:45:12.119Z,150.51
2023-03-29T03:46:12.151Z,150.42
2023-03-29T03:47:11.075Z,149.57
2023-03-29T03:48:12.095Z,146.19
2023-03-29T03:49:12.093Z,150.52
2023-03-29T03:50:12.090Z,151.18
2023-03-29T03:51:12.086Z,151.42
2023-03-29T03:52:12.090Z,150.36
2023-03-29T03:53:12.070Z,149.15
2023-03-29T03:54:12.072Z,148.01
2023-03-29T03:55:12.069Z,149.74
2023-03-29T03:56:11.090Z,150.49
2023-03-29T03:57:11.150Z,149.35
2023-03-29T03:58:12.112Z,150.44
2023-03-29T03:59:12.119Z,148.84
2023-03-29T04:00:11.108Z,150.97
2023-03-29T04:01:12.133Z,149.24
2023-03-29T04:02:11.149Z,148.67
2023-03-29T04:03:12.199Z,148.84
2023-03-29T04:04:12.161Z,149.44
2023-03-29T04:05:12.139Z,149.76
2023-03-29T04:06:12.139Z,150.18
2023-03-29T04:07:12.144Z,149.57
2023-03-29T04:08:12.134Z,150.73
2023-03-29T04:09:12.151Z,149.03
2023-03-29T04:10:11.204Z,148.44
2023-03-29T04:11:12.167Z,151.09
2023-03-29T04:12:11.192Z,149.92
2023-03-29T04:13:12.189Z,150.75
2023-03-29T04:14:11.210Z,148.13
2023-03-29T04:15:12.301Z,148.88
2023-03-29T04:16:12.282Z,150.03
2023-03-29T04:17:12.241Z,151.15
2023-03-29T04:18:12.328Z,151.55
2023-03-29T04:19:11.262Z,151.22
2023-03-29T04:20:12.292Z,151.32
2023-03-29T04:21:12.304Z,150.46
2023-03-29T04:22:12.311Z,150.53
2023-03-29T04:23:12.305Z,150.84
2023-03-29T04:24:12.318Z,149.85
2023-03-29T04:25:12.336Z,149.35
2023-03-29T04:26:12.360Z,150.16
2023-03-29T04:27:12.365Z,150.47
2023-03-29T04:28:12.390Z,151.66
2023-03-29T04:29:12.378Z,149.82
2023-03-29T04:30:11.398Z,152.09
2023-03-29T04:31:11.456Z,150.23
2023-03-29T04:32:12.410Z,152.33
2023-03-29T04:33:12.490Z,151.64
2023-03-29T04:34:12.437Z,152.62
2023-03-29T04:35:12.435Z,149.54
2023-03-29T04:36:12.498Z,149.05
2023-03-29T04:37:12.435Z,149.68
2023-03-29T04:38:12.437Z,149.19
2023-03-29T04:39:12.446Z,149.20
2023-03-29T04:40:12.456Z,148.81
2023-03-29T04:41:12.459Z,149.76
2023-03-29T04:42:12.459Z,150.48
2023-03-29T04:43:12.002Z,150.63
2023-03-29T04:44:12.449Z,148.25
2023-03-29T04:45:12.516Z,150.92
2023-03-29T04:46:12.530Z,148.39
2023-03-29T04:47:12.471Z,150.85
2023-03-29T04:48:12.566Z,146.76
2023-03-29T04:49:12.536Z,151.39
2023-03-29T04:50:12.521Z,147.92
2023-03-29T04:51:12.514Z,148.93
2023-03-29T04:52:12.536Z,149.98
2023-03-29T04:53:12.541Z,149.60
2023-03-29T04:54:12.554Z,149.32
2023-03-29T04:55:11.535Z,150.06
2023-03-29T04:56:12.550Z,149.16
2023-03-29T04:57:12.597Z,147.96
2023-03-29T04:58:12.575Z,148.30
2023-03-29T04:59:12.551Z,149.95
2023-03-29T05:00:12.552Z,147.63
2023-03-29T05:01:12.568Z,149.86
2023-03-29T05:02:12.620Z,149.59
2023-03-29T05:03:12.600Z,149.66
2023-03-29T05:04:13.018Z,150.07
2023-03-29T05:06:11.706Z,148.00
2023-03-29T05:07:12.585Z,149.71
2023-03-29T05:08:12.665Z,149.39
2023-03-29T05:09:12.622Z,149.58
2023-03-29T05:10:12.655Z,148.37
2023-03-29T05:11:12.632Z,150.83
2023-03-29T05:14:11.612Z,149.41
2023-03-29T05:15:12.637Z,147.63
2023-03-29T05:16:12.724Z,148.91
2023-03-29T05:17:12.681Z,150.10
2023-03-29T05:18:11.738Z,147.70
2023-03-29T05:19:12.668Z,148.76
2023-03-29T05:20:12.674Z,148.08
2023-03-29T05:21:12.710Z,147.27
2023-03-29T05:25:11.664Z,146.92
2023-03-29T05:26:12.687Z,150.28
2023-03-29T05:29:11.663Z,149.53
2023-03-29T05:30:12.633Z,148.19
2023-03-29T05:31:15.416Z,149.03
2023-03-29T05:36:11.638Z,153.07
2023-03-29T05:37:12.620Z,152.10
2023-03-29T05:38:11.601Z,151.56
2023-03-29T05:39:12.603Z,151.01
2023-03-29T05:41:11.605Z,153.49
2023-03-29T05:42:12.584Z,152.69
2023-03-29T05:43:12.598Z,155.06
2023-03-29T05:44:12.555Z,155.95
2023-03-29T05:48:11.563Z,160.19
2023-03-29T05:49:12.602Z,165.36
2023-03-29T05:50:12.600Z,164.53
2023-03-29T05:53:11.553Z,182.68
2023-03-29T05:54:12.638Z,174.19
2023-03-29T05:56:11.549Z,180.31
2023-03-29T05:57:12.619Z,178.56
2023-03-29T05:58:12.556Z,183.48
2023-03-29T06:02:11.664Z,202.92
2023-03-29T06:03:20.188Z,207.09
2023-03-29T06:04:12.673Z,207.75
2023-03-29T06:05:12.552Z,209.25
2023-03-29T06:06:12.556Z,212.42
2023-03-29T06:07:12.690Z,216.79
2023-03-29T06:08:12.547Z,226.44
2023-03-29T06:09:12.572Z,236.63
2023-03-29T06:10:11.545Z,236.28
2023-03-29T06:11:12.539Z,239.94
2023-03-29T06:12:12.659Z,239.44
2023-03-29T06:13:12.506Z,248.37
2023-03-29T06:14:12.647Z,250.00
2023-03-29T06:15:12.724Z,247.91
2023-03-29T06:18:12.390Z,248.70
2023-03-29T06:19:11.522Z,247.31
2023-03-29T06:20:12.476Z,249.17
2023-03-29T06:21:15.480Z,249.89
2023-03-29T06:25:11.607Z,251.32
2023-03-29T06:26:11.435Z,252.60
2023-03-29T06:27:12.567Z,249.61
2023-03-29T06:30:11.423Z,248.63
2023-03-29T06:31:12.487Z,248.18
2023-03-29T06:32:11.401Z,249.98
2023-03-29T06:33:12.392Z,249.44
2023-03-29T06:34:12.421Z,250.00
2023-03-29T06:35:12.936Z,249.94
2023-03-29T06:40:11.349Z,250.00
2023-03-29T06:41:12.382Z,248.73
2023-03-29T06:42:20.490Z,248.94
2023-03-29T06:43:12.386Z,249.18
2023-03-29T06:46:11.965Z,254.74
2023-03-29T06:47:12.327Z,258.19
2023-03-29T06:48:12.299Z,249.50
2023-03-29T06:51:11.301Z,248.79
2023-03-29T06:52:11.546Z,248.46
2023-03-29T06:53:12.275Z,250.00
2023-03-29T06:54:12.261Z,186.06
2023-03-29T06:55:12.264Z,150.94
2023-03-29T06:56:12.467Z,155.02
2023-03-29T06:57:13.469Z,161.59
2023-03-29T06:58:12.446Z,174.96
2023-03-29T07:02:11.584Z,222.23
2023-03-29T07:04:11.618Z,215.50
2023-03-29T07:05:12.610Z,214.69
2023-03-29T07:06:12.640Z,218.86
2023-03-29T07:07:11.710Z,214.91
2023-03-29T07:08:12.723Z,216.14
2023-03-29T07:09:12.734Z,218.13
2023-03-29T07:10:12.836Z,221.79
2023-03-29T07:11:13.150Z,223.46
2023-03-29T07:13:11.767Z,222.09
2023-03-29T07:14:12.071Z,226.41
2023-03-29T07:15:18.732Z,227.75
2023-03-29T07:17:11.726Z,228.62
2023-03-29T07:21:11.724Z,239.48
2023-03-29T07:22:11.707Z,239.87
2023-03-29T07:23:12.687Z,237.30
2023-03-29T07:28:11.657Z,229.44
2023-03-29T07:29:12.696Z,233.39
2023-03-29T07:30:12.647Z,239.73
2023-03-29T07:32:11.699Z,236.74
2023-03-29T07:33:12.740Z,234.88
2023-03-29T07:35:11.622Z,236.96
2023-03-29T07:36:12.677Z,239.27
2023-03-29T07:37:12.623Z,245.34
2023-03-29T07:41:11.585Z,249.47
2023-03-29T07:42:12.578Z,247.48
2023-03-29T07:43:13.079Z,249.33
2023-03-29T07:44:12.573Z,248.32
2023-03-29T07:46:11.607Z,249.94
2023-03-29T07:47:12.577Z,247.38
2023-03-29T07:49:11.608Z,240.21
2023-03-29T07:50:12.677Z,243.01
2023-03-29T07:51:12.719Z,241.41
2023-03-29T07:52:13.084Z,239.96
2023-03-29T07:53:12.822Z,240.22
2023-03-29T07:54:12.879Z,244.15
2023-03-29T07:55:12.962Z,244.43
2023-03-29T07:56:12.991Z,246.22
2023-03-29T07:57:13.068Z,246.55
2023-03-29T07:58:13.120Z,246.08
2023-03-29T07:59:13.178Z,246.69
2023-03-29T08:00:12.239Z,245.84
2023-03-29T08:01:15.348Z,243.94
2023-03-29T08:06:12.259Z,241.47
2023-03-29T08:07:13.283Z,240.84
2023-03-29T08:11:12.242Z,236.75
2023-03-29T08:12:13.230Z,236.96
2023-03-29T08:13:12.212Z,237.22
2023-03-29T08:14:13.232Z,235.19
2023-03-29T08:18:12.227Z,234.77
2023-03-29T08:21:12.166Z,232.78
2023-03-29T08:22:13.147Z,233.54
2023-03-29T08:24:12.153Z,230.97
2023-03-29T08:25:13.144Z,231.80
2023-03-29T08:26:12.140Z,229.22
2023-03-29T08:29:12.150Z,230.33
2023-03-29T08:30:13.142Z,228.31
2023-03-29T08:31:13.296Z,227.43
2023-03-29T08:32:13.159Z,226.47
2023-03-29T08:33:12.267Z,226.62
2023-03-29T08:34:13.179Z,224.21
2023-03-29T08:35:13.185Z,226.38
2023-03-29T08:36:13.273Z,225.72
2023-03-29T08:39:12.254Z,221.47
2023-03-29T08:40:13.253Z,223.35
2023-03-29T08:41:13.298Z,220.63
2023-03-29T08:42:13.615Z,222.09
2023-03-29T08:43:13.315Z,219.75
2023-03-29T08:46:12.377Z,220.08
2023-03-29T08:47:17.823Z,218.38
2023-03-29T08:51:12.351Z,216.19
2023-03-29T08:52:13.360Z,217.26
2023-03-29T08:53:13.386Z,215.71
2023-03-29T08:54:13.383Z,215.29
2023-03-29T08:55:13.404Z,214.32
2023-03-29T08:56:13.417Z,214.07
2023-03-29T08:57:13.539Z,214.57
2023-03-29T08:58:13.615Z,213.75
2023-03-29T09:00:12.455Z,213.98
2023-03-29T09:01:13.489Z,212.84
2023-03-29T09:02:13.556Z,211.91
2023-03-29T09:03:13.633Z,214.20
2023-03-29T09:04:13.579Z,212.35
2023-03-29T09:05:13.563Z,211.62
2023-03-29T09:06:13.561Z,213.19
2023-03-29T09:07:13.571Z,210.40
2023-03-29T09:08:13.610Z,211.04
2023-03-29T09:09:13.582Z,209.06
2023-03-29T09:10:13.638Z,209.58
2023-03-29T09:15:12.684Z,208.51
2023-03-29T09:16:13.757Z,208.28
2023-03-29T09:17:13.743Z,207.85
2023-03-29T09:18:13.820Z,207.70
2023-03-29T09:19:12.739Z,208.86
2023-03-29T09:20:12.777Z,207.42
2023-03-29T09:21:12.806Z,208.26
2023-03-29T09:24:12.840Z,203.56
2023-03-29T09:25:13.865Z,200.59
2023-03-29T09:27:12.897Z,199.79
2023-03-29T09:28:12.931Z,200.48
2023-03-29T09:31:12.964Z,204.91
2023-03-29T09:32:13.969Z,205.74
2023-03-29T09:33:14.040Z,203.52
2023-03-29T09:34:15.307Z,205.44
2023-03-29T09:36:13.040Z,205.95
2023-03-29T09:39:12.975Z,204.43
2023-03-29T09:40:13.971Z,202.28
2023-03-29T09:44:27.669Z,207.90
2023-03-29T09:45:13.938Z,208.08
2023-03-29T09:46:12.971Z,209.23
2023-03-29T09:47:13.926Z,202.14
2023-03-29T09:48:14.144Z,188.50
2023-03-29T09:52:12.930Z,92.12
2023-03-29T09:53:13.169Z,102.36
2023-03-29T09:54:13.872Z,95.64
2023-03-29T09:56:12.870Z,81.44
2023-03-29T09:57:13.902Z,74.97
2023-03-29T09:58:13.898Z,66.60
2023-03-29T09:59:13.830Z,72.18
2023-03-29T10:00:13.843Z,66.52
2023-03-29T10:02:12.853Z,62.26
2023-03-29T10:03:13.892Z,62.11
2023-03-29T10:04:13.976Z,51.07
2023-03-29T10:05:13.023Z,45.01
2023-03-29T10:06:14.058Z,43.50
2023-03-29T10:07:14.066Z,38.90
2023-03-29T10:11:13.289Z,45.20
2023-03-29T10:14:13.413Z,79.96
2023-03-29T10:15:26.768Z,86.10
2023-03-29T10:17:13.427Z,87.76
2023-03-29T10:18:14.446Z,93.00
2023-03-29T10:19:14.401Z,100.18
2023-03-29T10:21:13.381Z,118.91
2023-03-29T10:23:13.389Z,129.11
2023-03-29T10:24:14.383Z,131.26
2023-03-29T10:25:14.386Z,135.78
2023-03-29T10:26:13.360Z,139.74
2023-03-29T10:27:14.348Z,141.07
2023-03-29T10:28:14.398Z,141.84
2023-03-29T10:32:13.301Z,157.82
2023-03-29T10:33:14.308Z,161.23
2023-03-29T10:34:13.314Z,162.88
2023-03-29T10:35:14.277Z,164.49
2023-03-29T10:36:14.306Z,166.41
2023-03-29T10:41:13.287Z,178.63
2023-03-29T10:42:14.254Z,181.29
2023-03-29T10:43:14.241Z,179.82
2023-03-29T10:44:14.641Z,183.47
2023-03-29T10:46:13.418Z,184.89
2023-03-29T10:47:13.233Z,184.86
2023-03-29T10:48:14.256Z,183.15
2023-03-29T10:49:14.293Z,184.33
2023-03-29T10:50:14.305Z,184.90
2023-03-29T10:51:14.331Z,185.77
2023-03-29T10:52:14.313Z,183.64
2023-03-29T10:55:13.307Z,185.43
2023-03-29T10:56:14.320Z,184.87
2023-03-29T10:57:14.401Z,186.45
2023-03-29T10:58:14.313Z,185.44
2023-03-29T10:59:14.343Z,185.97
2023-03-29T11:00:14.375Z,186.01
2023-03-29T11:01:13.387Z,186.34
2023-03-29T11:02:13.418Z,185.35
2023-03-29T11:03:17.052Z,185.16
2023-03-29T11:04:14.384Z,185.33
2023-03-29T11:08:13.350Z,187.77
2023-03-29T11:09:14.358Z,189.37
2023-03-29T11:10:14.354Z,191.31
2023-03-29T11:13:13.593Z,189.29
2023-03-29T11:14:14.808Z,191.61
2023-03-29T11:17:13.292Z,189.05
2023-03-29T11:18:14.297Z,192.07
2023-03-29T11:20:13.271Z,192.30
2023-03-29T11:21:13.261Z,192.33
2023-03-29T11:22:14.248Z,193.23
2023-03-29T11:23:14.587Z,192.91
2023-03-29T11:25:13.271Z,194.02
2023-03-29T11:26:14.239Z,193.67
2023-03-29T11:28:13.354Z,192.54
2023-03-29T11:29:15.049Z,192.47
2023-03-29T11:33:13.433Z,194.25
2023-03-29T11:34:14.434Z,192.61
2023-03-29T11:35:15.066Z,194.21
2023-03-29T11:37:13.544Z,196.02
2023-03-29T11:38:14.576Z,194.10
2023-03-29T11:39:13.667Z,195.72
2023-03-29T11:40:15.391Z,196.78
2023-03-29T11:41:14.702Z,195.00
2023-03-29T11:43:13.731Z,196.50
2023-03-29T11:44:14.820Z,196.00
2023-03-29T11:46:13.914Z,197.72
2023-03-29T11:47:14.890Z,195.42
2023-03-29T11:48:14.919Z,196.44
2023-03-29T11:49:14.957Z,195.89
2023-03-29T11:50:13.963Z,197.25
2023-03-29T11:51:15.003Z,198.44
2023-03-29T11:52:15.023Z,196.84
2023-03-29T11:53:15.068Z,197.40
2023-03-29T11:54:15.123Z,197.17
2023-03-29T11:55:15.145Z,198.88
2023-03-29T11:56:15.461Z,199.11
2023-03-29T12:01:14.394Z,198.51
2023-03-29T12:04:14.469Z,198.97
2023-03-29T12:05:15.499Z,198.10
2023-03-29T12:06:15.819Z,200.24
2023-03-29T12:09:16.647Z,152.15
2023-03-29T12:10:15.668Z,84.91
2023-03-29T12:11:15.704Z,40.67
2023-03-29T12:12:15.752Z,23.01
2023-03-29T12:13:15.766Z,25.00
2023-03-29T12:16:14.883Z,23.78
2023-03-29T12:17:15.909Z,24.03
2023-03-29T12:18:15.965Z,27.85
2023-03-29T12:19:14.947Z,36.44
2023-03-29T12:20:15.929Z,43.99
2023-03-29T12:24:15.063Z,67.74
2023-03-29T12:30:15.257Z,134.38
2023-03-29T12:33:16.044Z,135.89
2023-03-29T12:34:16.378Z,138.50
2023-03-29T12:35:16.421Z,138.79
2023-03-29T12:39:15.431Z,148.53
2023-03-29T12:40:16.509Z,152.68
2023-03-29T12:45:15.757Z,168.64
2023-03-29T12:46:16.880Z,139.58
2023-03-29T12:48:15.876Z,64.81
2023-03-29T12:49:19.213Z,47.06
2023-03-29T12:51:15.888Z,49.58
2023-03-29T12:52:16.869Z,52.81
2023-03-29T12:53:16.878Z,70.00
2023-03-29T12:56:15.859Z,122.18
2023-03-29T12:57:16.882Z,134.58
2023-03-29T13:01:15.890Z,162.86
2023-03-29T13:02:16.890Z,164.52
2023-03-29T13:04:15.799Z,169.57
2023-03-29T13:05:16.912Z,172.96
2023-03-29T13:07:15.782Z,183.11
2023-03-29T13:08:15.809Z,184.79
2023-03-29T13:09:16.771Z,175.46
2023-03-29T13:12:15.869Z,186.18
2023-03-29T13:13:16.784Z,183.71
2023-03-29T13:14:16.792Z,186.22
2023-03-29T13:15:16.848Z,188.73
2023-03-29T13:16:16.948Z,189.63
2023-03-29T13:17:18.913Z,189.25
2023-03-29T13:21:15.950Z,193.72
2023-03-29T13:22:16.926Z,197.29
2023-03-29T13:24:15.902Z,196.47
2023-03-29T13:25:16.883Z,199.75
2023-03-29T13:31:15.863Z,204.22
2023-03-29T13:32:16.841Z,203.97
2023-03-29T13:34:15.819Z,206.60
2023-03-29T13:35:16.833Z,206.33
2023-03-29T13:37:15.830Z,206.20
2023-03-29T13:38:16.815Z,209.45
2023-03-29T13:39:16.802Z,209.37
2023-03-29T13:44:15.751Z,210.19
2023-03-29T13:45:16.822Z,210.78
2023-03-29T13:46:16.794Z,215.59
2023-03-29T13:47:16.732Z,220.70
2023-03-29T13:52:15.712Z,217.04
2023-03-29T13:53:16.714Z,217.25
2023-03-29T13:54:16.691Z,215.29
2023-03-29T13:59:15.650Z,216.37
2023-03-29T14:00:15.732Z,216.60
2023-03-29T14:01:16.723Z,219.40
2023-03-29T14:03:15.698Z,219.30
2023-03-29T14:04:16.635Z,216.94
2023-03-29T14:05:16.775Z,215.71
2023-03-29T14:06:16.696Z,216.64
2023-03-29T14:07:16.712Z,215.00
2023-03-29T14:08:16.782Z,214.12
2023-03-29T14:10:15.798Z,214.43
2023-03-29T14:11:16.826Z,216.20
2023-03-29T14:14:15.898Z,214.98
2023-03-29T14:15:16.928Z,214.30
2023-03-29T14:16:16.988Z,215.67
2023-03-29T14:17:16.981Z,215.26
2023-03-29T14:20:16.070Z,214.03
2023-03-29T14:21:17.112Z,213.61
2023-03-29T14:22:17.112Z,212.99
2023-03-29T14:23:17.133Z,212.24
2023-03-29T14:27:16.274Z,211.59
2023-03-29T14:28:17.286Z,211.26
2023-03-29T14:29:17.307Z,211.05
2023-03-29T14:30:17.335Z,211.05
2023-03-29T14:35:16.492Z,209.78
2023-03-29T14:36:17.713Z,209.35
2023-03-29T14:37:16.562Z,208.85
2023-03-29T14:38:17.653Z,209.15
2023-03-29T14:43:16.813Z,207.73
2023-03-29T14:44:17.853Z,207.75
2023-03-29T14:45:17.898Z,207.63
2023-03-29T14:46:17.953Z,207.69
2023-03-29T14:47:17.981Z,206.49
2023-03-29T14:48:18.034Z,206.11
2023-03-29T14:49:18.064Z,206.82
2023-03-29T14:50:18.119Z,207.88
2023-03-29T14:51:17.169Z,205.57
2023-03-29T14:52:18.196Z,206.76
2023-03-29T14:53:18.240Z,207.42
2023-03-29T14:54:18.286Z,205.61
2023-03-29T14:55:18.328Z,205.93
2023-03-29T14:56:18.389Z,205.58
2023-03-29T14:57:18.527Z,205.61
2023-03-29T14:58:18.472Z,206.36
2023-03-29T14:59:18.526Z,205.30
2023-03-29T15:00:17.637Z,204.34
2023-03-29T15:01:18.627Z,204.94
2023-03-29T15:02:18.668Z,204.75
2023-03-29T15:03:18.781Z,205.50
2023-03-29T15:07:17.915Z,203.50
2023-03-29T15:08:18.973Z,202.74
2023-03-29T15:09:19.029Z,202.19
2023-03-29T15:10:19.100Z,203.04
2023-03-29T15:11:19.176Z,202.24
2023-03-29T15:12:18.234Z,202.20
2023-03-29T15:13:19.264Z,202.21
2023-03-29T15:14:19.333Z,201.70
2023-03-29T15:15:19.405Z,202.31
2023-03-29T15:20:18.696Z,200.48
2023-03-29T15:21:19.765Z,201.47
2023-03-29T15:22:19.835Z,200.76
2023-03-29T15:23:19.909Z,199.91
2023-03-29T15:24:19.966Z,199.07
2023-03-29T15:25:20.032Z,198.88
2023-03-29T15:26:20.106Z,199.29
2023-03-29T15:27:20.157Z,199.97
2023-03-29T15:28:20.268Z,199.33
2023-03-29T15:29:20.291Z,198.59
2023-03-29T15:30:20.325Z,200.95
2023-03-29T15:31:31.907Z,198.82
2023-03-29T15:32:20.389Z,199.23
2023-03-29T15:33:20.496Z,199.85
2023-03-29T15:34:20.353Z,200.15
2023-03-29T15:35:20.333Z,200.56
2023-03-29T15:36:20.427Z,200.15
2023-03-29T15:37:19.367Z,200.19
2023-03-29T15:38:23.342Z,199.22
2023-03-29T15:39:20.482Z,199.49
2023-03-29T15:40:20.344Z,199.84
2023-03-29T15:41:20.371Z,199.83
2023-03-29T15:42:20.420Z,197.99
2023-03-29T15:43:20.306Z,198.55
2023-03-29T15:44:20.327Z,198.28
2023-03-29T15:45:20.394Z,198.80
2023-03-29T15:46:20.328Z,197.37
2023-03-29T15:47:20.328Z,199.67
2023-03-29T15:48:20.294Z,198.08
2023-03-29T15:49:20.281Z,197.12
2023-03-29T15:50:20.315Z,196.91
2023-03-29T15:51:19.687Z,196.99
2023-03-29T15:52:20.340Z,194.82
2023-03-29T15:53:20.344Z,197.09
2023-03-29T15:54:20.252Z,195.62
2023-03-29T15:55:20.229Z,196.65
2023-03-29T15:56:20.261Z,197.59
2023-03-29T15:57:20.399Z,195.27
2023-03-29T15:58:20.256Z,195.56
2023-03-29T15:59:20.193Z,196.37
2023-03-29T16:00:20.326Z,196.76
2023-03-29T16:01:20.373Z,196.36
2023-03-29T16:02:20.399Z,197.61
2023-03-29T16:03:20.489Z,194.43
2023-03-29T16:04:20.492Z,197.59
2023-03-29T16:05:20.593Z,195.94
2023-03-29T16:06:20.684Z,194.96
2023-03-29T16:07:20.659Z,194.95
2023-03-29T16:08:20.777Z,193.64